createdAt,value
2022-11-18T00:01:06.864Z,3.49
2022-11-18T00:03:34.797Z,3.11
2022-11-18T00:06:04.327Z,3.22
2022-11-18T00:08:31.787Z,2.71
2022-11-18T00:10:59.248Z,2.72
2022-11-18T00:13:44.338Z,2.80
2022-11-18T00:16:13.537Z,3.42
2022-11-18T00:18:41.055Z,2.94
2022-11-18T00:21:12.328Z,3.39
2022-11-18T00:23:40.522Z,3.06
2022-11-18T00:26:10.081Z,2.68
2022-11-18T00:28:37.840Z,2.47
2022-11-18T00:31:07.814Z,2.38
2022-11-18T00:33:36.832Z,3.42
2022-11-18T00:36:05.073Z,2.88
2022-11-18T00:38:34.123Z,2.87
2022-11-18T00:41:02.609Z,2.61
2022-11-18T00:43:30.022Z,2.42
2022-11-18T00:45:57.767Z,2.36
2022-11-18T00:48:25.310Z,2.68
2022-11-18T00:50:54.184Z,2.67
2022-11-18T00:53:23.334Z,2.62
2022-11-18T00:55:52.192Z,2.28
2022-11-18T00:58:20.247Z,2.73
2022-11-18T01:00:52.351Z,2.58
2022-11-18T01:03:20.745Z,2.42
2022-11-18T01:05:48.635Z,2.51
2022-11-18T01:08:17.781Z,2.84
2022-11-18T01:10:45.199Z,2.75
2022-11-18T01:13:20.937Z,2.20
2022-11-18T01:15:49.964Z,2.14
2022-11-18T01:18:18.160Z,2.29
2022-11-18T01:20:46.293Z,2.38
2022-11-18T01:23:14.694Z,2.13
2022-11-18T01:25:44.088Z,2.22
2022-11-18T01:28:12.468Z,2.13
2022-11-18T01:30:42.688Z,1.85
2022-11-18T01:33:10.219Z,2.22
2022-11-18T01:35:38.343Z,2.21
2022-11-18T01:38:07.007Z,2.13
2022-11-18T01:40:35.778Z,1.93
2022-11-18T01:43:03.411Z,2.06
2022-11-18T01:45:35.040Z,1.95
2022-11-18T01:48:09.384Z,1.94
2022-11-18T01:50:40.483Z,1.99
2022-11-18T01:53:12.963Z,2.20
2022-11-18T01:55:45.918Z,1.89
2022-11-18T01:58:20.542Z,2.15
2022-11-18T02:00:47.961Z,2.24
2022-11-18T02:03:17.829Z,2.19
2022-11-18T02:05:48.067Z,2.09
2022-11-18T02:08:16.706Z,1.87
2022-11-18T02:10:44.128Z,2.28
2022-11-18T02:13:12.676Z,1.90
2022-11-18T02:15:48.789Z,1.96
2022-11-18T02:18:29.122Z,1.98
2022-11-18T02:21:04.699Z,2.06
2022-11-18T02:23:58.598Z,1.95
2022-11-18T02:27:05.621Z,2.23
2022-11-18T02:29:40.466Z,2.22
2022-11-18T02:32:12.193Z,1.76
2022-11-18T02:35:16.310Z,2.31
2022-11-18T02:37:49.093Z,2.20
2022-11-18T02:40:23.295Z,2.16
2022-11-18T02:42:55.677Z,1.91
2022-11-18T02:45:26.734Z,1.93
2022-11-18T02:47:58.567Z,1.76
2022-11-18T02:50:30.091Z,1.82
2022-11-18T02:53:01.605Z,1.98
2022-11-18T02:55:31.759Z,1.81
2022-11-18T02:58:00.170Z,2.19
2022-11-18T03:00:29.150Z,1.86
2022-11-18T03:02:56.547Z,1.73
2022-11-18T03:05:32.140Z,1.67
2022-11-18T03:08:09.149Z,1.68
2022-11-18T03:10:44.069Z,1.93
2022-11-18T03:13:17.635Z,1.98
2022-11-18T03:15:54.258Z,2.10
2022-11-18T03:18:29.040Z,2.21
2022-11-18T03:21:03.690Z,1.99
2022-11-18T03:23:37.252Z,2.52
2022-11-18T03:26:10.149Z,1.95
2022-11-18T03:28:44.683Z,1.88
2022-11-18T03:31:19.289Z,1.85
2022-11-18T03:33:51.734Z,1.50
2022-11-18T03:36:23.089Z,1.54
2022-11-18T03:38:55.219Z,1.32
2022-11-18T03:41:25.194Z,1.21
2022-11-18T03:43:58.519Z,1.12
2022-11-18T03:46:35.211Z,0.89
2022-11-18T03:49:02.798Z,1.25
2022-11-18T03:51:34.458Z,1.70
2022-11-18T03:54:08.432Z,1.65
2022-11-18T03:56:42.158Z,1.49
2022-11-18T03:59:14.473Z,1.10
2022-11-18T04:01:49.692Z,0.81
2022-11-18T04:04:18.326Z,1.31
2022-11-18T04:06:49.630Z,1.31
2022-11-18T04:09:21.073Z,1.38
2022-11-18T04:12:03.541Z,1.08
2022-11-18T04:14:33.001Z,0.98
2022-11-18T04:17:06.332Z,0.91
2022-11-18T04:19:33.729Z,1.17
2022-11-18T04:22:01.098Z,1.13
2022-11-18T04:24:28.484Z,1.21
2022-11-18T04:26:55.907Z,1.30
2022-11-18T04:29:23.685Z,1.31
2022-11-18T04:31:51.245Z,1.33
2022-11-18T04:34:19.948Z,1.23
2022-11-18T04:36:47.337Z,1.42
2022-11-18T04:39:15.276Z,1.42
2022-11-18T04:41:58.131Z,1.43
2022-11-18T04:44:27.444Z,1.86
2022-11-18T04:46:56.071Z,1.25
2022-11-18T04:49:25.473Z,1.60
2022-11-18T04:51:53.688Z,0.91
2022-11-18T04:54:22.271Z,1.32
2022-11-18T04:56:50.292Z,1.38
2022-11-18T04:59:20.866Z,1.70
2022-11-18T05:01:48.886Z,0.97
2022-11-18T05:04:18.592Z,0.98
2022-11-18T05:06:47.584Z,1.10
2022-11-18T05:09:15.749Z,1.56
2022-11-18T05:12:00.824Z,1.98
2022-11-18T05:14:29.079Z,1.02
2022-11-18T05:16:58.608Z,0.92
2022-11-18T05:19:26.313Z,0.69
2022-11-18T05:21:55.203Z,1.02
2022-11-18T05:24:24.049Z,1.45
2022-11-18T05:26:52.098Z,1.14
2022-11-18T05:29:20.508Z,0.98
2022-11-18T05:31:48.355Z,0.96
2022-11-18T05:34:16.404Z,0.78
2022-11-18T05:36:43.807Z,0.93
2022-11-18T05:39:12.539Z,0.82
2022-11-18T05:41:57.611Z,0.76
2022-11-18T05:44:25.002Z,1.00
2022-11-18T05:46:52.597Z,1.35
2022-11-18T05:49:20.331Z,1.85
2022-11-18T05:51:47.965Z,1.50
2022-11-18T05:54:19.152Z,0.88
2022-11-18T05:56:46.555Z,0.81
2022-11-18T05:59:14.955Z,0.53
2022-11-18T06:01:46.076Z,0.65
2022-11-18T06:04:18.422Z,0.89
2022-11-18T06:06:49.069Z,1.28
2022-11-18T06:09:22.377Z,1.17
2022-11-18T06:11:54.028Z,1.17
2022-11-18T06:14:26.612Z,1.07
2022-11-18T06:16:58.255Z,0.91
2022-11-18T06:19:27.003Z,0.79
2022-11-18T06:21:55.030Z,0.69
2022-11-18T06:24:24.741Z,0.75
2022-11-18T06:26:52.748Z,0.57
2022-11-18T06:29:26.205Z,0.90
2022-11-18T06:31:55.182Z,1.42
2022-11-18T06:34:23.422Z,1.81
2022-11-18T06:36:50.803Z,1.33
2022-11-18T06:39:18.307Z,0.77
2022-11-18T06:41:47.215Z,0.53
2022-11-18T06:44:14.222Z,0.63
2022-11-18T06:46:56.919Z,0.52
2022-11-18T06:49:24.494Z,0.43
2022-11-18T06:51:52.319Z,0.69
2022-11-18T06:54:19.881Z,1.05
2022-11-18T06:56:48.623Z,0.74
2022-11-18T06:59:21.577Z,0.50
2022-11-18T07:01:49.078Z,0.50
2022-11-18T07:04:16.495Z,0.81
2022-11-18T07:06:43.900Z,1.18
2022-11-18T07:09:11.308Z,0.74
2022-11-18T07:11:41.186Z,0.58
2022-11-18T07:14:10.464Z,0.58
2022-11-18T07:16:38.337Z,0.63
2022-11-18T07:19:10.634Z,0.38
2022-11-18T07:21:38.847Z,0.56
2022-11-18T07:24:08.159Z,0.61
2022-11-18T07:26:36.363Z,0.91
2022-11-18T07:29:03.875Z,0.90
2022-11-18T07:31:33.857Z,0.83
2022-11-18T07:34:01.319Z,0.74
2022-11-18T07:36:35.439Z,0.92
2022-11-18T07:39:05.502Z,0.90
2022-11-18T07:41:33.915Z,0.40
2022-11-18T07:44:02.911Z,0.47
2022-11-18T07:46:33.150Z,0.78
2022-11-18T07:49:02.020Z,0.64
2022-11-18T07:51:31.629Z,0.64
2022-11-18T07:53:59.477Z,0.73
2022-11-18T07:56:27.745Z,0.57
2022-11-18T07:58:56.449Z,0.68
2022-11-18T08:01:25.537Z,0.65
2022-11-18T08:03:54.321Z,0.50
2022-11-18T08:06:22.001Z,0.43
2022-11-18T08:08:49.723Z,0.60
2022-11-18T08:11:22.996Z,0.65
2022-11-18T08:13:50.771Z,0.84
2022-11-18T08:16:20.173Z,1.14
2022-11-18T08:18:48.207Z,0.90
2022-11-18T08:21:18.774Z,0.90
2022-11-18T08:23:51.190Z,0.53
2022-11-18T08:26:18.989Z,0.53
2022-11-18T08:28:46.915Z,0.57
2022-11-18T08:31:16.887Z,0.78
2022-11-18T08:33:44.505Z,0.29
2022-11-18T08:36:15.923Z,0.43
2022-11-18T08:38:44.937Z,0.41
2022-11-18T08:41:14.073Z,0.27
2022-11-18T08:43:41.592Z,0.67
2022-11-18T08:46:09.050Z,0.28
2022-11-18T08:48:36.677Z,0.37
2022-11-18T08:51:05.942Z,-0.02
2022-11-18T08:53:33.813Z,-0.11
2022-11-18T08:56:02.527Z,-0.07
2022-11-18T08:58:30.023Z,0.06
2022-11-18T09:00:57.492Z,0.30
2022-11-18T09:03:25.051Z,-0.04
2022-11-18T09:05:52.461Z,-0.11
2022-11-18T09:08:19.938Z,0.15
2022-11-18T09:10:47.425Z,0.16
2022-11-18T09:13:44.811Z,-0.02
2022-11-18T09:16:04.916Z,0.64
2022-11-18T09:18:32.610Z,0.27
2022-11-18T09:21:02.220Z,0.72
2022-11-18T09:23:29.626Z,0.33
2022-11-18T09:26:00.135Z,-0.08
2022-11-18T09:28:29.248Z,-0.18
2022-11-18T09:30:56.776Z,-0.01
2022-11-18T09:33:24.297Z,-0.01
2022-11-18T09:35:51.712Z,0.20
2022-11-18T09:38:19.143Z,0.29
2022-11-18T09:40:57.356Z,0.37
2022-11-18T09:43:36.202Z,0.21
2022-11-18T09:46:16.457Z,1.06
2022-11-18T09:49:01.439Z,1.17
2022-11-18T09:51:31.315Z,0.60
2022-11-18T09:53:58.723Z,0.50
2022-11-18T09:56:28.197Z,0.83
2022-11-18T09:58:57.882Z,1.12
2022-11-18T10:01:27.696Z,0.84
2022-11-18T10:03:55.515Z,0.40
2022-11-18T10:06:26.542Z,0.36
2022-11-18T10:09:06.250Z,0.11
2022-11-18T10:11:41.749Z,0.70
2022-11-18T10:14:25.835Z,0.24
2022-11-18T10:17:02.306Z,-0.19
2022-11-18T10:19:38.618Z,0.29
2022-11-18T10:22:24.362Z,0.34
2022-11-18T10:24:54.352Z,0.40
2022-11-18T10:27:22.548Z,-0.02
2022-11-18T10:29:56.175Z,0.32
2022-11-18T10:32:23.881Z,0.80
2022-11-18T10:34:53.524Z,0.97
2022-11-18T10:37:45.424Z,0.62
2022-11-18T10:40:25.533Z,0.36
2022-11-18T10:42:53.015Z,-0.02
2022-11-18T10:45:28.724Z,0.75
2022-11-18T10:47:59.467Z,0.59
2022-11-18T10:50:38.043Z,0.71
2022-11-18T10:53:06.450Z,1.62
2022-11-18T10:55:34.664Z,1.49
2022-11-18T10:58:08.673Z,1.26
2022-11-18T11:00:42.186Z,0.78
2022-11-18T11:03:27.852Z,0.44
2022-11-18T11:06:22.931Z,0.31
2022-11-18T11:08:51.887Z,0.31
2022-11-18T11:11:28.590Z,0.67
2022-11-18T11:14:05.667Z,0.66
2022-11-18T11:16:40.503Z,0.41
2022-11-18T11:19:12.373Z,0.18
2022-11-18T11:21:39.782Z,0.86
2022-11-18T11:24:12.634Z,0.77
2022-11-18T11:30:04.359Z,0.50
2022-11-18T11:32:44.210Z,0.40
2022-11-18T11:35:18.105Z,0.33
2022-11-18T11:37:54.491Z,0.46
2022-11-18T11:40:30.565Z,1.10
2022-11-18T11:43:11.627Z,0.79
2022-11-18T11:45:54.926Z,1.21
2022-11-18T11:48:39.924Z,1.03
2022-11-18T11:51:16.051Z,1.07
2022-11-18T11:54:20.047Z,1.17
2022-11-18T11:56:52.416Z,1.12
2022-11-18T11:59:29.213Z,1.50
2022-11-18T12:02:16.062Z,0.71
2022-11-18T12:04:47.540Z,1.17
2022-11-18T12:07:18.982Z,0.97
2022-11-18T12:10:06.744Z,0.67
2022-11-18T12:12:38.605Z,0.98
2022-11-18T12:15:24.075Z,0.96
2022-11-18T12:17:59.845Z,0.71
2022-11-18T12:20:44.871Z,1.15
2022-11-18T12:23:18.521Z,0.63
2022-11-18T12:25:55.335Z,1.21
2022-11-18T12:28:29.347Z,1.75
2022-11-18T12:31:35.400Z,1.88
2022-11-18T12:34:19.648Z,1.77
2022-11-18T12:36:48.748Z,1.25
2022-11-18T12:39:49.172Z,1.45
2022-11-18T12:43:03.754Z,1.02
2022-11-18T12:45:58.813Z,0.98
2022-11-18T12:48:35.324Z,0.92
2022-11-18T12:51:04.337Z,0.52
2022-11-18T12:53:38.700Z,0.71
2022-11-18T12:56:22.200Z,0.97
2022-11-18T12:58:51.944Z,0.78
2022-11-18T13:01:22.156Z,0.61
2022-11-18T13:03:49.743Z,0.68
2022-11-18T13:06:25.943Z,0.90
2022-11-18T13:08:58.827Z,1.10
2022-11-18T13:11:42.101Z,1.44
2022-11-18T13:14:33.838Z,1.26
2022-11-18T13:17:19.194Z,1.10
2022-11-18T13:19:56.591Z,1.52
2022-11-18T13:22:41.166Z,1.29
2022-11-18T13:25:23.712Z,1.33
2022-11-18T13:27:58.113Z,1.72
2022-11-18T13:30:25.657Z,1.02
2022-11-18T13:32:58.737Z,1.13
2022-11-18T13:35:29.127Z,0.97
2022-11-18T13:37:58.649Z,1.29
2022-11-18T13:40:30.057Z,1.26
2022-11-18T13:42:57.570Z,1.08
2022-11-18T13:45:28.772Z,1.58
2022-11-18T13:48:02.303Z,1.23
2022-11-18T13:50:34.274Z,1.23
2022-11-18T13:53:09.423Z,1.10
2022-11-18T13:55:41.526Z,1.14
2022-11-18T13:58:28.050Z,1.35
2022-11-18T14:00:57.686Z,1.06
2022-11-18T14:03:28.996Z,1.54
2022-11-18T14:05:57.237Z,0.80
2022-11-18T14:08:29.086Z,1.23
2022-11-18T14:10:58.889Z,1.32
2022-11-18T14:13:29.113Z,1.88
2022-11-18T14:15:58.441Z,1.91
2022-11-18T14:18:32.056Z,1.08
2022-11-18T14:21:00.794Z,1.06
2022-11-18T14:23:31.105Z,1.79
2022-11-18T14:26:01.948Z,1.61
2022-11-18T14:28:33.842Z,1.14
2022-11-18T14:31:04.838Z,0.86
2022-11-18T14:33:33.127Z,1.33
2022-11-18T14:36:02.542Z,0.62
2022-11-18T14:38:47.645Z,0.65
2022-11-18T14:41:44.246Z,1.03
2022-11-18T14:44:13.313Z,0.80
2022-11-18T14:46:43.181Z,0.86
2022-11-18T14:49:14.641Z,0.56
2022-11-18T14:51:42.042Z,0.69
2022-11-18T14:54:13.757Z,0.73
2022-11-18T14:56:43.606Z,0.84
2022-11-18T14:59:14.030Z,0.97
2022-11-18T15:01:42.489Z,0.73
2022-11-18T15:04:10.403Z,0.86
2022-11-18T15:06:39.646Z,0.88
2022-11-18T15:09:08.075Z,0.74
2022-11-18T15:11:35.745Z,0.74
2022-11-18T15:14:04.551Z,0.96
2022-11-18T15:16:33.520Z,0.85
2022-11-18T15:19:04.016Z,0.62
2022-11-18T15:21:31.806Z,0.88
2022-11-18T15:23:59.227Z,0.86
2022-11-18T15:26:28.702Z,0.69
2022-11-18T15:28:57.870Z,0.97
2022-11-18T15:31:26.935Z,1.24
2022-11-18T15:33:54.821Z,1.81
2022-11-18T15:36:23.803Z,1.63
2022-11-18T15:38:52.162Z,1.89
2022-11-18T15:41:21.453Z,2.04
2022-11-18T15:43:48.944Z,2.12
2022-11-18T15:46:17.439Z,1.23
2022-11-18T15:48:46.920Z,1.84
2022-11-18T15:51:15.217Z,1.72
2022-11-18T15:53:42.609Z,1.60
2022-11-18T15:56:27.789Z,1.32
2022-11-18T15:58:57.189Z,2.16
2022-11-18T16:01:25.603Z,2.33
2022-11-18T16:03:54.610Z,1.98
2022-11-18T16:06:22.295Z,2.26
2022-11-18T16:08:54.433Z,1.35
2022-11-18T16:11:42.850Z,1.65
2022-11-18T16:14:13.078Z,1.34
2022-11-18T16:16:42.746Z,1.26
2022-11-18T16:19:13.206Z,1.86
2022-11-18T16:21:43.305Z,2.28
2022-11-18T16:24:15.015Z,2.42
2022-11-18T16:26:42.723Z,2.71
2022-11-18T16:29:12.369Z,2.44
2022-11-18T16:31:39.930Z,1.72
2022-11-18T16:34:08.143Z,1.48
2022-11-18T16:36:37.216Z,1.31
2022-11-18T16:39:06.179Z,2.14
2022-11-18T16:41:33.588Z,1.88
2022-11-18T16:44:03.609Z,1.85
2022-11-18T16:46:32.443Z,2.19
2022-11-18T16:49:00.527Z,1.87
2022-11-18T16:51:29.187Z,1.50
2022-11-18T16:53:59.491Z,1.67
2022-11-18T16:56:28.952Z,2.21
2022-11-18T16:59:00.861Z,2.08
2022-11-18T17:01:29.877Z,1.54
2022-11-18T17:04:00.497Z,1.69
2022-11-18T17:06:28.242Z,1.99
2022-11-18T17:08:55.638Z,1.86
2022-11-18T17:11:24.355Z,1.54
2022-11-18T17:13:56.435Z,2.10
2022-11-18T17:16:26.033Z,2.66
2022-11-18T17:18:57.678Z,2.26
2022-11-18T17:21:26.394Z,2.28
2022-11-18T17:23:54.723Z,1.98
2022-11-18T17:26:25.074Z,1.90
2022-11-18T17:28:52.686Z,2.16
2022-11-18T17:31:21.767Z,2.07
2022-11-18T17:33:50.529Z,2.37
2022-11-18T17:36:20.197Z,2.65
2022-11-18T17:38:49.511Z,2.35
2022-11-18T17:41:32.851Z,2.34
2022-11-18T17:44:03.563Z,1.98
2022-11-18T17:46:36.343Z,2.25
2022-11-18T17:49:07.851Z,2.08
2022-11-18T17:51:35.237Z,1.59
2022-11-18T17:54:02.902Z,2.51
2022-11-18T17:56:30.326Z,1.99
2022-11-18T17:58:58.007Z,1.89
2022-11-18T18:01:26.845Z,1.61
2022-11-18T18:03:54.384Z,1.57
2022-11-18T18:06:21.926Z,1.62
2022-11-18T18:08:49.619Z,2.23
2022-11-18T18:11:18.683Z,2.47
2022-11-18T18:14:04.444Z,2.28
2022-11-18T18:16:33.891Z,2.02
2022-11-18T18:19:02.762Z,2.10
2022-11-18T18:21:30.435Z,2.27
2022-11-18T18:23:57.846Z,1.98
2022-11-18T18:26:30.919Z,1.74
2022-11-18T18:28:59.359Z,1.99
2022-11-18T18:31:26.842Z,2.28
2022-11-18T18:33:56.086Z,1.90
2022-11-18T18:36:25.093Z,1.79
2022-11-18T18:38:53.302Z,2.02
2022-11-18T18:41:22.797Z,1.93
2022-11-18T18:43:51.193Z,2.06
2022-11-18T18:46:29.101Z,1.51
2022-11-18T18:49:00.953Z,2.19
2022-11-18T18:51:30.338Z,2.35
2022-11-18T18:53:58.510Z,2.14
2022-11-18T18:56:26.577Z,2.21
2022-11-18T18:58:54.095Z,1.20
2022-11-18T19:01:22.031Z,1.37
2022-11-18T19:04:01.607Z,2.05
2022-11-18T19:09:19.144Z,2.22
2022-11-18T19:12:04.511Z,1.99
2022-11-18T19:14:34.070Z,2.34
2022-11-18T19:17:08.183Z,1.98
2022-11-18T19:19:57.235Z,2.21
2022-11-18T19:22:25.578Z,2.35
2022-11-18T19:24:53.847Z,2.58
2022-11-18T19:27:21.649Z,2.45
2022-11-18T19:29:49.099Z,2.76
2022-11-18T19:32:16.810Z,2.59
2022-11-18T19:34:45.633Z,2.81
2022-11-18T19:37:13.059Z,2.58
2022-11-18T19:39:40.476Z,2.86
2022-11-18T19:42:10.597Z,2.63
2022-11-18T19:44:38.113Z,2.73
2022-11-18T19:47:08.823Z,2.78
2022-11-18T19:49:36.314Z,3.43
2022-11-18T19:52:05.063Z,2.69
2022-11-18T19:54:32.536Z,2.77
2022-11-18T19:57:00.961Z,2.70
2022-11-18T19:59:28.491Z,2.64
2022-11-18T20:01:56.070Z,2.58
2022-11-18T20:04:23.752Z,2.74
2022-11-18T20:06:51.310Z,2.79
2022-11-18T20:09:20.517Z,2.75
2022-11-18T20:11:49.114Z,2.52
2022-11-18T20:14:16.521Z,2.37
2022-11-18T20:16:43.958Z,2.33
2022-11-18T20:19:13.556Z,2.39
2022-11-18T20:21:43.248Z,2.61
2022-11-18T20:24:16.851Z,2.23
2022-11-18T20:26:46.154Z,2.20
2022-11-18T20:29:13.891Z,1.81
2022-11-18T20:31:42.616Z,2.23
2022-11-18T20:34:14.310Z,2.32
2022-11-18T20:36:42.317Z,2.48
2022-11-18T20:39:17.424Z,2.24
2022-11-18T20:42:10.365Z,1.95
2022-11-18T20:44:37.825Z,2.18
2022-11-18T20:47:05.270Z,1.84
2022-11-18T20:49:32.678Z,1.98
2022-11-18T20:52:00.173Z,1.66
2022-11-18T20:54:27.650Z,1.93
2022-11-18T20:56:56.431Z,1.74
2022-11-18T20:59:23.880Z,2.19
2022-11-18T21:01:51.696Z,1.99
2022-11-18T21:04:19.303Z,1.83
2022-11-18T21:06:47.392Z,1.78
2022-11-18T21:09:16.997Z,1.59
2022-11-18T21:11:44.850Z,1.34
2022-11-18T21:14:24.106Z,1.35
2022-11-18T21:16:52.937Z,1.67
2022-11-18T21:19:20.813Z,1.45
2022-11-18T21:21:51.854Z,1.42
2022-11-18T21:24:20.689Z,1.22
2022-11-18T21:26:49.871Z,1.43
2022-11-18T21:29:19.510Z,1.25
2022-11-18T21:31:47.996Z,1.73
2022-11-18T21:34:16.293Z,0.85
2022-11-18T21:36:47.860Z,1.60
2022-11-18T21:39:18.111Z,1.80
2022-11-18T21:41:49.352Z,1.70
2022-11-18T21:44:21.015Z,1.42
2022-11-18T21:46:48.423Z,1.46
2022-11-18T21:49:16.409Z,2.02
2022-11-18T21:51:44.800Z,2.13
2022-11-18T21:54:12.909Z,1.82
2022-11-18T21:56:40.500Z,1.40
2022-11-18T21:59:07.985Z,1.44
2022-11-18T22:01:36.809Z,1.74
2022-11-18T22:04:05.813Z,1.73
2022-11-18T22:06:34.532Z,1.85
2022-11-18T22:09:03.554Z,1.90
2022-11-18T22:11:31.331Z,1.92
2022-11-18T22:13:59.011Z,2.09
2022-11-18T22:16:27.827Z,2.05
2022-11-18T22:19:03.680Z,1.92
2022-11-18T22:21:32.640Z,1.79
2022-11-18T22:24:01.357Z,1.88
2022-11-18T22:26:29.884Z,1.88
2022-11-18T22:28:58.978Z,1.92
2022-11-18T22:31:28.520Z,1.64
2022-11-18T22:33:57.564Z,1.80
2022-11-18T22:36:27.322Z,1.83
2022-11-18T22:38:55.743Z,1.82
2022-11-18T22:41:42.434Z,1.66
2022-11-18T22:44:11.124Z,1.69
2022-11-18T22:46:40.999Z,1.79
2022-11-18T22:49:11.804Z,1.79
2022-11-18T22:51:40.295Z,1.81
2022-11-18T22:54:38.388Z,1.74
2022-11-18T22:56:56.594Z,1.66
2022-11-18T22:59:24.333Z,0.97
2022-11-18T23:01:52.494Z,7.27
2022-11-18T23:04:21.350Z,9.49
2022-11-18T23:06:49.082Z,9.74
2022-11-18T23:09:17.013Z,9.76
2022-11-18T23:12:02.617Z,9.17
2022-11-18T23:14:30.255Z,5.97
2022-11-18T23:16:57.723Z,4.39
2022-11-18T23:19:26.585Z,3.45
2022-11-18T23:21:54.028Z,2.99
2022-11-18T23:24:21.517Z,2.82
2022-11-18T23:26:49.220Z,2.21
2022-11-18T23:29:17.783Z,1.74
2022-11-18T23:31:45.858Z,1.68
2022-11-18T23:34:15.239Z,1.46
2022-11-18T23:36:44.066Z,1.56
2022-11-18T23:39:11.842Z,1.57
2022-11-18T23:41:39.759Z,1.66
2022-11-18T23:44:07.588Z,1.65
2022-11-18T23:46:35.304Z,1.35
2022-11-18T23:49:02.769Z,1.48
2022-11-18T23:51:30.154Z,1.30
2022-11-18T23:53:59.203Z,0.88
2022-11-18T23:56:28.074Z,0.82
2022-11-18T23:58:57.794Z,1.15
